sensor_id;sensor_type;location;lat;lon;timestamp;P1;durP1;ratioP1;P2;durP2;ratioP2
67566;SDS011;54394;53.540;49.402;2022-07-29T00:00:07;22.55;;;7.05;;
67566;SDS011;54394;53.540;49.402;2022-07-29T00:02:34;26.25;;;6.18;;
67566;SDS011;54394;53.540;49.402;2022-07-29T00:36:02;16.40;;;8.07;;
67566;SDS011;54394;53.540;49.402;2022-07-29T00:38:28;19.42;;;9.20;;
67566;SDS011;54394;53.540;49.402;2022-07-29T00:40:54;16.77;;;7.75;;
67566;SDS011;54394;53.540;49.402;2022-07-29T00:43:20;19.08;;;9.27;;
67566;SDS011;54394;53.540;49.402;2022-07-29T00:45:46;17.98;;;8.70;;
67566;SDS011;54394;53.540;49.402;2022-07-29T00:48:12;19.98;;;8.77;;
67566;SDS011;54394;53.540;49.402;2022-07-29T00:50:38;17.23;;;8.60;;
67566;SDS011;54394;53.540;49.402;2022-07-29T00:53:07;20.58;;;9.63;;
67566;SDS011;54394;53.540;49.402;2022-07-29T00:55:34;18.45;;;9.45;;
67566;SDS011;54394;53.540;49.402;2022-07-29T00:58:00;18.67;;;10.93;;
67566;SDS011;54394;53.540;49.402;2022-07-29T01:00:27;22.25;;;9.90;;
67566;SDS011;54394;53.540;49.402;2022-07-29T01:02:53;19.67;;;10.13;;
67566;SDS011;54394;53.540;49.402;2022-07-29T01:05:21;18.33;;;9.82;;
67566;SDS011;54394;53.540;49.402;2022-07-29T01:07:48;20.65;;;9.15;;
67566;SDS011;54394;53.540;49.402;2022-07-29T01:10:16;19.77;;;9.60;;
67566;SDS011;54394;53.540;49.402;2022-07-29T01:12:44;23.48;;;10.02;;
67566;SDS011;54394;53.540;49.402;2022-07-29T01:15:12;20.40;;;8.95;;
67566;SDS011;54394;53.540;49.402;2022-07-29T01:31:42;15.95;;;7.72;;
67566;SDS011;54394;53.540;49.402;2022-07-29T01:40:00;14.27;;;6.65;;
67566;SDS011;54394;53.540;49.402;2022-07-29T01:45:28;9.23;;;5.80;;
67566;SDS011;54394;53.540;49.402;2022-07-29T01:50:53;11.02;;;5.82;;
67566;SDS011;54394;53.540;49.402;2022-07-29T01:53:36;23.20;;;6.15;;
67566;SDS011;54394;53.540;49.402;2022-07-29T01:56:04;34.45;;;7.00;;
67566;SDS011;54394;53.540;49.402;2022-07-29T01:58:32;29.85;;;6.78;;
67566;SDS011;54394;53.540;49.402;2022-07-29T02:00:58;34.60;;;6.72;;
67566;SDS011;54394;53.540;49.402;2022-07-29T02:03:25;30.12;;;7.03;;
67566;SDS011;54394;53.540;49.402;2022-07-29T02:05:51;30.50;;;7.07;;
67566;SDS011;54394;53.540;49.402;2022-07-29T02:08:18;38.65;;;6.55;;
67566;SDS011;54394;53.540;49.402;2022-07-29T02:10:45;35.17;;;8.15;;
67566;SDS011;54394;53.540;49.402;2022-07-29T02:13:13;33.50;;;6.70;;
67566;SDS011;54394;53.540;49.402;2022-07-29T02:15:41;38.47;;;7.07;;
67566;SDS011;54394;53.540;49.402;2022-07-29T02:18:09;29.60;;;7.15;;
67566;SDS011;54394;53.540;49.402;2022-07-29T02:20:38;27.10;;;7.00;;
67566;SDS011;54394;53.540;49.402;2022-07-29T02:23:05;35.90;;;7.03;;
67566;SDS011;54394;53.540;49.402;2022-07-29T02:25:32;29.10;;;6.87;;
67566;SDS011;54394;53.540;49.402;2022-07-29T02:27:59;28.90;;;6.00;;
67566;SDS011;54394;53.540;49.402;2022-07-29T02:30:26;23.80;;;6.30;;
67566;SDS011;54394;53.540;49.402;2022-07-29T02:32:53;31.92;;;8.32;;
67566;SDS011;54394;53.540;49.402;2022-07-29T02:35:19;48.22;;;8.40;;
67566;SDS011;54394;53.540;49.402;2022-07-29T02:37:45;38.20;;;6.87;;
67566;SDS011;54394;53.540;49.402;2022-07-29T02:40:35;42.97;;;7.10;;
67566;SDS011;54394;53.540;49.402;2022-07-29T02:43:03;22.52;;;7.32;;
67566;SDS011;54394;53.540;49.402;2022-07-29T02:45:31;13.55;;;4.87;;
67566;SDS011;54394;53.540;49.402;2022-07-29T02:47:58;18.45;;;4.35;;
67566;SDS011;54394;53.540;49.402;2022-07-29T02:50:35;19.10;;;5.40;;
67566;SDS011;54394;53.540;49.402;2022-07-29T02:55:49;20.60;;;7.25;;
67566;SDS011;54394;53.540;49.402;2022-07-29T02:58:33;12.52;;;5.50;;
67566;SDS011;54394;53.540;49.402;2022-07-29T03:01:02;17.25;;;5.93;;
67566;SDS011;54394;53.540;49.402;2022-07-29T03:03:33;9.50;;;5.80;;
67566;SDS011;54394;53.540;49.402;2022-07-29T03:06:01;7.90;;;4.93;;
67566;SDS011;54394;53.540;49.402;2022-07-29T03:08:28;13.98;;;5.12;;
67566;SDS011;54394;53.540;49.402;2022-07-29T03:10:55;14.13;;;4.68;;
67566;SDS011;54394;53.540;49.402;2022-07-29T03:13:21;15.23;;;6.20;;
67566;SDS011;54394;53.540;49.402;2022-07-29T03:15:48;16.20;;;5.50;;
67566;SDS011;54394;53.540;49.402;2022-07-29T03:18:14;20.55;;;5.57;;
67566;SDS011;54394;53.540;49.402;2022-07-29T03:20:41;15.80;;;6.07;;
67566;SDS011;54394;53.540;49.402;2022-07-29T03:23:07;23.50;;;5.80;;
67566;SDS011;54394;53.540;49.402;2022-07-29T03:25:34;11.50;;;5.90;;
67566;SDS011;54394;53.540;49.402;2022-07-29T03:28:00;12.40;;;4.85;;
67566;SDS011;54394;53.540;49.402;2022-07-29T03:30:27;10.77;;;5.37;;
67566;SDS011;54394;53.540;49.402;2022-07-29T03:32:55;10.55;;;4.70;;
67566;SDS011;54394;53.540;49.402;2022-07-29T03:35:21;14.05;;;4.93;;
67566;SDS011;54394;53.540;49.402;2022-07-29T03:37:48;8.70;;;5.60;;
67566;SDS011;54394;53.540;49.402;2022-07-29T03:40:16;8.40;;;5.45;;
67566;SDS011;54394;53.540;49.402;2022-07-29T03:42:45;9.48;;;5.00;;
67566;SDS011;54394;53.540;49.402;2022-07-29T03:45:14;9.48;;;5.87;;
67566;SDS011;54394;53.540;49.402;2022-07-29T03:47:42;11.80;;;5.18;;
67566;SDS011;54394;53.540;49.402;2022-07-29T03:50:11;8.23;;;5.50;;
67566;SDS011;54394;53.540;49.402;2022-07-29T03:52:38;6.70;;;4.82;;
67566;SDS011;54394;53.540;49.402;2022-07-29T03:55:04;13.50;;;6.55;;
67566;SDS011;54394;53.540;49.402;2022-07-29T03:57:32;11.05;;;5.62;;
67566;SDS011;54394;53.540;49.402;2022-07-29T03:59:59;19.23;;;6.25;;
67566;SDS011;54394;53.540;49.402;2022-07-29T04:02:26;15.43;;;6.62;;
67566;SDS011;54394;53.540;49.402;2022-07-29T04:04:53;14.38;;;5.20;;
67566;SDS011;54394;53.540;49.402;2022-07-29T04:07:19;16.10;;;6.12;;
67566;SDS011;54394;53.540;49.402;2022-07-29T04:09:45;22.05;;;6.18;;
67566;SDS011;54394;53.540;49.402;2022-07-29T04:12:11;17.37;;;6.47;;
67566;SDS011;54394;53.540;49.402;2022-07-29T04:14:37;18.23;;;5.50;;
67566;SDS011;54394;53.540;49.402;2022-07-29T04:17:03;16.80;;;5.57;;
67566;SDS011;54394;53.540;49.402;2022-07-29T04:19:29;15.43;;;5.40;;
67566;SDS011;54394;53.540;49.402;2022-07-29T04:21:56;16.23;;;6.43;;
67566;SDS011;54394;53.540;49.402;2022-07-29T04:24:23;9.85;;;5.35;;
67566;SDS011;54394;53.540;49.402;2022-07-29T04:26:49;18.83;;;5.72;;
67566;SDS011;54394;53.540;49.402;2022-07-29T04:29:15;18.35;;;6.97;;
67566;SDS011;54394;53.540;49.402;2022-07-29T04:31:41;17.30;;;5.82;;
67566;SDS011;54394;53.540;49.402;2022-07-29T04:34:08;18.42;;;6.30;;
67566;SDS011;54394;53.540;49.402;2022-07-29T04:36:34;9.73;;;5.75;;
67566;SDS011;54394;53.540;49.402;2022-07-29T04:39:00;10.73;;;6.00;;
67566;SDS011;54394;53.540;49.402;2022-07-29T04:41:29;20.83;;;6.10;;
67566;SDS011;54394;53.540;49.402;2022-07-29T04:43:56;15.23;;;6.03;;
67566;SDS011;54394;53.540;49.402;2022-07-29T04:46:22;13.35;;;6.18;;
67566;SDS011;54394;53.540;49.402;2022-07-29T04:48:48;12.07;;;6.00;;
67566;SDS011;54394;53.540;49.402;2022-07-29T04:51:15;22.98;;;6.57;;
67566;SDS011;54394;53.540;49.402;2022-07-29T04:53:41;15.85;;;5.82;;
67566;SDS011;54394;53.540;49.402;2022-07-29T04:56:08;9.07;;;5.65;;
67566;SDS011;54394;53.540;49.402;2022-07-29T04:58:34;13.55;;;5.97;;
67566;SDS011;54394;53.540;49.402;2022-07-29T05:01:00;17.87;;;5.37;;
67566;SDS011;54394;53.540;49.402;2022-07-29T05:03:27;18.27;;;7.32;;
67566;SDS011;54394;53.540;49.402;2022-07-29T05:05:53;12.75;;;5.53;;
67566;SDS011;54394;53.540;49.402;2022-07-29T05:08:19;12.15;;;4.90;;
67566;SDS011;54394;53.540;49.402;2022-07-29T05:10:45;13.07;;;5.50;;
67566;SDS011;54394;53.540;49.402;2022-07-29T05:13:11;9.60;;;4.75;;
67566;SDS011;54394;53.540;49.402;2022-07-29T05:15:37;22.35;;;7.40;;
67566;SDS011;54394;53.540;49.402;2022-07-29T05:18:03;14.43;;;5.22;;
67566;SDS011;54394;53.540;49.402;2022-07-29T05:20:30;6.35;;;4.80;;
67566;SDS011;54394;53.540;49.402;2022-07-29T05:23:00;8.27;;;5.03;;
67566;SDS011;54394;53.540;49.402;2022-07-29T05:25:27;11.55;;;4.75;;
67566;SDS011;54394;53.540;49.402;2022-07-29T05:27:53;7.57;;;4.82;;
67566;SDS011;54394;53.540;49.402;2022-07-29T05:30:20;10.23;;;4.68;;
67566;SDS011;54394;53.540;49.402;2022-07-29T05:32:46;8.43;;;5.05;;
67566;SDS011;54394;53.540;49.402;2022-07-29T05:35:12;8.20;;;5.50;;
67566;SDS011;54394;53.540;49.402;2022-07-29T05:37:39;16.33;;;4.70;;
67566;SDS011;54394;53.540;49.402;2022-07-29T05:40:06;11.02;;;5.18;;
67566;SDS011;54394;53.540;49.402;2022-07-29T05:42:32;7.12;;;5.03;;
67566;SDS011;54394;53.540;49.402;2022-07-29T05:44:59;11.00;;;4.95;;
67566;SDS011;54394;53.540;49.402;2022-07-29T05:47:26;10.57;;;4.28;;
67566;SDS011;54394;53.540;49.402;2022-07-29T05:49:52;9.13;;;4.80;;
67566;SDS011;54394;53.540;49.402;2022-07-29T05:52:19;8.05;;;4.62;;
67566;SDS011;54394;53.540;49.402;2022-07-29T05:54:45;8.80;;;4.12;;
67566;SDS011;54394;53.540;49.402;2022-07-29T05:57:15;7.40;;;4.18;;
67566;SDS011;54394;53.540;49.402;2022-07-29T05:59:45;6.50;;;4.32;;
67566;SDS011;54394;53.540;49.402;2022-07-29T06:02:11;12.25;;;4.50;;
67566;SDS011;54394;53.540;49.402;2022-07-29T06:04:37;10.80;;;4.68;;
67566;SDS011;54394;53.540;49.402;2022-07-29T06:07:04;8.57;;;4.68;;
67566;SDS011;54394;53.540;49.402;2022-07-29T06:09:30;5.22;;;3.35;;
67566;SDS011;54394;53.540;49.402;2022-07-29T06:11:56;7.40;;;4.43;;
67566;SDS011;54394;53.540;49.402;2022-07-29T06:14:23;9.55;;;4.22;;
67566;SDS011;54394;53.540;49.402;2022-07-29T06:16:50;5.93;;;4.10;;
67566;SDS011;54394;53.540;49.402;2022-07-29T06:19:16;14.98;;;4.82;;
67566;SDS011;54394;53.540;49.402;2022-07-29T06:21:43;7.93;;;3.62;;
67566;SDS011;54394;53.540;49.402;2022-07-29T06:24:10;7.80;;;4.37;;
67566;SDS011;54394;53.540;49.402;2022-07-29T06:26:37;4.70;;;3.95;;
67566;SDS011;54394;53.540;49.402;2022-07-29T06:29:04;10.10;;;4.30;;
67566;SDS011;54394;53.540;49.402;2022-07-29T06:31:30;8.10;;;4.47;;
67566;SDS011;54394;53.540;49.402;2022-07-29T06:33:56;5.55;;;3.72;;
67566;SDS011;54394;53.540;49.402;2022-07-29T06:36:22;8.55;;;4.37;;
67566;SDS011;54394;53.540;49.402;2022-07-29T06:38:48;8.88;;;4.20;;
67566;SDS011;54394;53.540;49.402;2022-07-29T06:41:14;10.43;;;4.65;;
67566;SDS011;54394;53.540;49.402;2022-07-29T06:43:42;8.10;;;4.57;;
67566;SDS011;54394;53.540;49.402;2022-07-29T06:46:09;7.43;;;3.97;;
67566;SDS011;54394;53.540;49.402;2022-07-29T06:48:38;5.28;;;3.33;;
67566;SDS011;54394;53.540;49.402;2022-07-29T06:51:05;7.35;;;4.55;;
67566;SDS011;54394;53.540;49.402;2022-07-29T06:53:32;4.10;;;3.47;;
67566;SDS011;54394;53.540;49.402;2022-07-29T06:56:00;6.60;;;4.30;;
67566;SDS011;54394;53.540;49.402;2022-07-29T06:58:27;9.23;;;4.03;;
67566;SDS011;54394;53.540;49.402;2022-07-29T07:00:53;7.50;;;4.32;;
67566;SDS011;54394;53.540;49.402;2022-07-29T07:03:19;9.40;;;4.30;;
67566;SDS011;54394;53.540;49.402;2022-07-29T07:05:45;6.03;;;4.50;;
67566;SDS011;54394;53.540;49.402;2022-07-29T07:08:12;6.87;;;3.75;;
67566;SDS011;54394;53.540;49.402;2022-07-29T07:10:38;8.70;;;4.50;;
67566;SDS011;54394;53.540;49.402;2022-07-29T07:13:05;7.43;;;4.47;;
67566;SDS011;54394;53.540;49.402;2022-07-29T07:15:31;12.25;;;4.68;;
67566;SDS011;54394;53.540;49.402;2022-07-29T07:17:57;4.40;;;3.90;;
67566;SDS011;54394;53.540;49.402;2022-07-29T07:20:24;11.45;;;4.87;;
67566;SDS011;54394;53.540;49.402;2022-07-29T07:22:50;8.05;;;4.18;;
67566;SDS011;54394;53.540;49.402;2022-07-29T07:25:16;8.52;;;5.05;;
67566;SDS011;54394;53.540;49.402;2022-07-29T07:27:43;6.53;;;4.80;;
67566;SDS011;54394;53.540;49.402;2022-07-29T07:30:10;6.40;;;4.25;;
67566;SDS011;54394;53.540;49.402;2022-07-29T07:32:36;6.60;;;4.75;;
67566;SDS011;54394;53.540;49.402;2022-07-29T07:35:06;5.50;;;3.90;;
67566;SDS011;54394;53.540;49.402;2022-07-29T07:37:32;8.80;;;4.65;;
67566;SDS011;54394;53.540;49.402;2022-07-29T07:39:59;9.00;;;4.55;;
67566;SDS011;54394;53.540;49.402;2022-07-29T07:42:25;6.10;;;4.12;;
67566;SDS011;54394;53.540;49.402;2022-07-29T07:44:51;6.28;;;4.25;;
67566;SDS011;54394;53.540;49.402;2022-07-29T07:47:18;6.80;;;4.32;;
67566;SDS011;54394;53.540;49.402;2022-07-29T07:49:52;9.90;;;4.37;;
67566;SDS011;54394;53.540;49.402;2022-07-29T07:52:19;10.18;;;4.55;;
67566;SDS011;54394;53.540;49.402;2022-07-29T07:54:46;8.60;;;5.57;;
67566;SDS011;54394;53.540;49.402;2022-07-29T07:57:12;15.02;;;5.22;;
67566;SDS011;54394;53.540;49.402;2022-07-29T07:59:38;7.30;;;5.50;;
67566;SDS011;54394;53.540;49.402;2022-07-29T08:02:04;9.25;;;5.50;;
67566;SDS011;54394;53.540;49.402;2022-07-29T08:04:31;15.43;;;4.65;;
67566;SDS011;54394;53.540;49.402;2022-07-29T08:06:57;8.43;;;4.10;;
67566;SDS011;54394;53.540;49.402;2022-07-29T08:09:24;6.57;;;4.37;;
67566;SDS011;54394;53.540;49.402;2022-07-29T08:11:50;10.07;;;4.35;;
67566;SDS011;54394;53.540;49.402;2022-07-29T08:14:17;5.57;;;3.62;;
67566;SDS011;54394;53.540;49.402;2022-07-29T08:16:43;9.98;;;4.57;;
67566;SDS011;54394;53.540;49.402;2022-07-29T08:19:09;8.18;;;4.68;;
67566;SDS011;54394;53.540;49.402;2022-07-29T08:21:35;8.55;;;4.65;;
67566;SDS011;54394;53.540;49.402;2022-07-29T08:24:01;9.98;;;4.65;;
67566;SDS011;54394;53.540;49.402;2022-07-29T08:26:46;4.53;;;3.83;;
67566;SDS011;54394;53.540;49.402;2022-07-29T08:29:12;8.18;;;4.03;;
67566;SDS011;54394;53.540;49.402;2022-07-29T08:31:38;6.95;;;5.10;;
67566;SDS011;54394;53.540;49.402;2022-07-29T08:34:05;12.07;;;4.70;;
67566;SDS011;54394;53.540;49.402;2022-07-29T08:36:31;6.78;;;4.25;;
67566;SDS011;54394;53.540;49.402;2022-07-29T08:38:58;6.90;;;4.93;;
67566;SDS011;54394;53.540;49.402;2022-07-29T08:41:25;8.23;;;3.87;;
67566;SDS011;54394;53.540;49.402;2022-07-29T08:43:51;7.35;;;4.57;;
67566;SDS011;54394;53.540;49.402;2022-07-29T08:46:18;5.53;;;4.20;;
67566;SDS011;54394;53.540;49.402;2022-07-29T08:48:44;6.07;;;4.12;;
67566;SDS011;54394;53.540;49.402;2022-07-29T08:51:14;5.45;;;4.30;;
67566;SDS011;54394;53.540;49.402;2022-07-29T08:53:42;11.38;;;5.10;;
67566;SDS011;54394;53.540;49.402;2022-07-29T08:56:12;4.93;;;4.25;;
67566;SDS011;54394;53.540;49.402;2022-07-29T08:58:46;9.70;;;4.28;;
67566;SDS011;54394;53.540;49.402;2022-07-29T09:01:17;5.78;;;3.67;;
67566;SDS011;54394;53.540;49.402;2022-07-29T09:03:47;14.05;;;4.03;;
67566;SDS011;54394;53.540;49.402;2022-07-29T09:06:14;7.40;;;4.12;;
67566;SDS011;54394;53.540;49.402;2022-07-29T09:08:40;12.32;;;4.70;;
67566;SDS011;54394;53.540;49.402;2022-07-29T09:11:06;10.05;;;4.57;;
67566;SDS011;54394;53.540;49.402;2022-07-29T09:13:33;15.02;;;5.78;;
67566;SDS011;54394;53.540;49.402;2022-07-29T09:15:59;9.25;;;4.78;;
67566;SDS011;54394;53.540;49.402;2022-07-29T09:18:35;8.30;;;5.20;;
67566;SDS011;54394;53.540;49.402;2022-07-29T09:21:05;11.43;;;4.90;;
67566;SDS011;54394;53.540;49.402;2022-07-29T09:24:06;9.98;;;5.87;;
67566;SDS011;54394;53.540;49.402;2022-07-29T09:26:39;5.30;;;3.78;;
67566;SDS011;54394;53.540;49.402;2022-07-29T09:29:10;9.90;;;5.93;;
67566;SDS011;54394;53.540;49.402;2022-07-29T09:31:37;10.00;;;5.50;;
67566;SDS011;54394;53.540;49.402;2022-07-29T09:34:05;9.70;;;4.82;;
67566;SDS011;54394;53.540;49.402;2022-07-29T09:36:39;13.52;;;4.93;;
67566;SDS011;54394;53.540;49.402;2022-07-29T09:39:05;8.75;;;5.68;;
67566;SDS011;54394;53.540;49.402;2022-07-29T09:41:44;11.73;;;5.20;;
67566;SDS011;54394;53.540;49.402;2022-07-29T09:44:10;8.05;;;4.82;;
67566;SDS011;54394;53.540;49.402;2022-07-29T09:46:36;11.32;;;5.45;;
67566;SDS011;54394;53.540;49.402;2022-07-29T09:49:09;8.68;;;5.55;;
67566;SDS011;54394;53.540;49.402;2022-07-29T09:51:36;10.50;;;5.68;;
67566;SDS011;54394;53.540;49.402;2022-07-29T09:54:24;8.63;;;5.35;;
67566;SDS011;54394;53.540;49.402;2022-07-29T09:56:49;11.27;;;5.45;;
67566;SDS011;54394;53.540;49.402;2022-07-29T09:59:15;13.35;;;4.45;;
67566;SDS011;54394;53.540;49.402;2022-07-29T10:01:42;12.43;;;4.97;;
67566;SDS011;54394;53.540;49.402;2022-07-29T10:04:08;6.85;;;4.30;;
67566;SDS011;54394;53.540;49.402;2022-07-29T10:06:34;18.35;;;4.55;;
67566;SDS011;54394;53.540;49.402;2022-07-29T10:09:10;10.27;;;5.05;;
67566;SDS011;54394;53.540;49.402;2022-07-29T10:11:37;10.07;;;5.00;;
67566;SDS011;54394;53.540;49.402;2022-07-29T10:14:03;8.55;;;4.93;;
67566;SDS011;54394;53.540;49.402;2022-07-29T10:16:30;7.53;;;5.00;;
67566;SDS011;54394;53.540;49.402;2022-07-29T10:19:01;6.80;;;4.57;;
67566;SDS011;54394;53.540;49.402;2022-07-29T10:21:27;8.60;;;4.55;;
67566;SDS011;54394;53.540;49.402;2022-07-29T10:23:53;9.02;;;4.70;;
67566;SDS011;54394;53.540;49.402;2022-07-29T10:26:19;11.52;;;7.28;;
67566;SDS011;54394;53.540;49.402;2022-07-29T10:28:45;14.98;;;5.82;;
67566;SDS011;54394;53.540;49.402;2022-07-29T10:31:34;9.60;;;5.68;;
67566;SDS011;54394;53.540;49.402;2022-07-29T10:40:00;6.05;;;3.97;;
67566;SDS011;54394;53.540;49.402;2022-07-29T10:42:59;13.75;;;6.72;;
67566;SDS011;54394;53.540;49.402;2022-07-29T10:45:34;9.05;;;5.50;;
67566;SDS011;54394;53.540;49.402;2022-07-29T10:48:04;10.55;;;5.37;;
67566;SDS011;54394;53.540;49.402;2022-07-29T10:54:06;9.63;;;5.45;;
67566;SDS011;54394;53.540;49.402;2022-07-29T10:56:30;8.18;;;4.70;;
67566;SDS011;54394;53.540;49.402;2022-07-29T11:01:47;11.52;;;6.25;;
67566;SDS011;54394;53.540;49.402;2022-07-29T11:04:15;8.77;;;6.00;;
67566;SDS011;54394;53.540;49.402;2022-07-29T11:09:26;9.67;;;4.93;;
67566;SDS011;54394;53.540;49.402;2022-07-29T11:11:52;9.05;;;4.72;;
67566;SDS011;54394;53.540;49.402;2022-07-29T11:14:18;8.27;;;4.75;;
67566;SDS011;54394;53.540;49.402;2022-07-29T11:17:02;8.73;;;5.12;;
67566;SDS011;54394;53.540;49.402;2022-07-29T11:19:29;7.32;;;4.43;;
67566;SDS011;54394;53.540;49.402;2022-07-29T11:21:56;9.95;;;5.62;;
67566;SDS011;54394;53.540;49.402;2022-07-29T11:24:24;8.60;;;5.35;;
67566;SDS011;54394;53.540;49.402;2022-07-29T11:29:38;12.60;;;5.75;;
67566;SDS011;54394;53.540;49.402;2022-07-29T11:32:10;9.05;;;5.32;;
67566;SDS011;54394;53.540;49.402;2022-07-29T11:34:37;13.85;;;6.30;;
67566;SDS011;54394;53.540;49.402;2022-07-29T11:39:39;9.32;;;5.87;;
67566;SDS011;54394;53.540;49.402;2022-07-29T11:42:41;13.23;;;7.07;;
67566;SDS011;54394;53.540;49.402;2022-07-29T11:47:36;11.82;;;5.93;;
67566;SDS011;54394;53.540;49.402;2022-07-29T11:50:04;14.65;;;6.35;;
67566;SDS011;54394;53.540;49.402;2022-07-29T11:52:49;11.75;;;6.25;;
67566;SDS011;54394;53.540;49.402;2022-07-29T11:55:16;10.73;;;6.85;;
67566;SDS011;54394;53.540;49.402;2022-07-29T11:57:49;16.00;;;5.90;;
67566;SDS011;54394;53.540;49.402;2022-07-29T12:03:01;14.57;;;7.40;;
67566;SDS011;54394;53.540;49.402;2022-07-29T12:08:05;12.10;;;5.82;;
67566;SDS011;54394;53.540;49.402;2022-07-29T12:10:32;6.55;;;4.32;;
67566;SDS011;54394;53.540;49.402;2022-07-29T12:12:59;10.40;;;6.05;;
67566;SDS011;54394;53.540;49.402;2022-07-29T12:15:26;10.48;;;5.78;;
67566;SDS011;54394;53.540;49.402;2022-07-29T12:17:52;10.32;;;6.57;;
67566;SDS011;54394;53.540;49.402;2022-07-29T12:20:28;1.65;;;1.20;;
67566;SDS011;54394;53.540;49.402;2022-07-29T12:22:55;14.35;;;4.80;;
67566;SDS011;54394;53.540;49.402;2022-07-29T12:25:22;11.05;;;6.15;;
67566;SDS011;54394;53.540;49.402;2022-07-29T12:28:02;9.68;;;3.85;;
67566;SDS011;54394;53.540;49.402;2022-07-29T12:30:34;13.90;;;4.75;;
67566;SDS011;54394;53.540;49.402;2022-07-29T12:33:37;2.75;;;1.55;;
67566;SDS011;54394;53.540;49.402;2022-07-29T12:35:58;11.50;;;6.80;;
67566;SDS011;54394;53.540;49.402;2022-07-29T12:38:25;1.30;;;1.20;;
67566;SDS011;54394;53.540;49.402;2022-07-29T12:40:52;9.18;;;5.97;;
67566;SDS011;54394;53.540;49.402;2022-07-29T12:43:19;13.98;;;6.25;;
67566;SDS011;54394;53.540;49.402;2022-07-29T12:45:47;11.85;;;6.93;;
67566;SDS011;54394;53.540;49.402;2022-07-29T12:48:32;11.50;;;5.47;;
67566;SDS011;54394;53.540;49.402;2022-07-29T12:51:02;1.00;;;1.00;;
67566;SDS011;54394;53.540;49.402;2022-07-29T12:53:29;6.95;;;5.20;;
67566;SDS011;54394;53.540;49.402;2022-07-29T12:55:56;9.82;;;5.97;;
67566;SDS011;54394;53.540;49.402;2022-07-29T13:01:05;9.18;;;5.10;;
67566;SDS011;54394;53.540;49.402;2022-07-29T13:06:39;11.43;;;6.07;;
67566;SDS011;54394;53.540;49.402;2022-07-29T13:11:40;16.17;;;8.32;;
67566;SDS011;54394;53.540;49.402;2022-07-29T13:14:08;17.77;;;8.52;;
67566;SDS011;54394;53.540;49.402;2022-07-29T13:16:35;13.35;;;7.12;;
67566;SDS011;54394;53.540;49.402;2022-07-29T13:21:35;13.35;;;7.37;;
67566;SDS011;54394;53.540;49.402;2022-07-29T13:24:01;10.20;;;6.70;;
67566;SDS011;54394;53.540;49.402;2022-07-29T13:26:27;12.15;;;6.50;;
67566;SDS011;54394;53.540;49.402;2022-07-29T13:28:54;14.00;;;7.70;;
67566;SDS011;54394;53.540;49.402;2022-07-29T13:31:20;13.23;;;8.65;;
67566;SDS011;54394;53.540;49.402;2022-07-29T13:33:47;10.10;;;6.30;;
67566;SDS011;54394;53.540;49.402;2022-07-29T13:36:13;10.77;;;7.22;;
67566;SDS011;54394;53.540;49.402;2022-07-29T13:38:39;16.65;;;7.10;;
67566;SDS011;54394;53.540;49.402;2022-07-29T13:41:05;11.48;;;7.05;;
67566;SDS011;54394;53.540;49.402;2022-07-29T13:43:31;9.68;;;7.47;;
67566;SDS011;54394;53.540;49.402;2022-07-29T13:45:57;14.65;;;6.82;;
67566;SDS011;54394;53.540;49.402;2022-07-29T13:48:23;8.75;;;5.70;;
67566;SDS011;54394;53.540;49.402;2022-07-29T13:50:49;10.40;;;6.00;;
67566;SDS011;54394;53.540;49.402;2022-07-29T13:53:15;9.27;;;6.18;;
67566;SDS011;54394;53.540;49.402;2022-07-29T13:55:41;9.65;;;6.47;;
67566;SDS011;54394;53.540;49.402;2022-07-29T13:58:07;9.48;;;5.93;;
67566;SDS011;54394;53.540;49.402;2022-07-29T14:00:33;10.80;;;5.93;;
67566;SDS011;54394;53.540;49.402;2022-07-29T14:03:00;9.18;;;6.65;;
67566;SDS011;54394;53.540;49.402;2022-07-29T14:05:26;9.65;;;6.95;;
67566;SDS011;54394;53.540;49.402;2022-07-29T14:07:52;11.55;;;6.47;;
67566;SDS011;54394;53.540;49.402;2022-07-29T14:10:18;8.32;;;5.87;;
67566;SDS011;54394;53.540;49.402;2022-07-29T14:12:44;12.43;;;6.00;;
67566;SDS011;54394;53.540;49.402;2022-07-29T14:15:10;12.93;;;6.25;;
67566;SDS011;54394;53.540;49.402;2022-07-29T14:17:36;12.15;;;6.40;;
67566;SDS011;54394;53.540;49.402;2022-07-29T14:20:02;11.55;;;7.25;;
67566;SDS011;54394;53.540;49.402;2022-07-29T14:22:29;9.82;;;5.97;;
67566;SDS011;54394;53.540;49.402;2022-07-29T14:24:55;11.70;;;5.62;;
67566;SDS011;54394;53.540;49.402;2022-07-29T14:27:21;14.90;;;7.45;;
67566;SDS011;54394;53.540;49.402;2022-07-29T14:29:47;11.02;;;6.87;;
67566;SDS011;54394;53.540;49.402;2022-07-29T14:32:13;14.43;;;7.18;;
67566;SDS011;54394;53.540;49.402;2022-07-29T14:34:40;8.90;;;5.93;;
67566;SDS011;54394;53.540;49.402;2022-07-29T14:37:06;9.57;;;5.97;;
67566;SDS011;54394;53.540;49.402;2022-07-29T14:39:32;11.25;;;6.60;;
67566;SDS011;54394;53.540;49.402;2022-07-29T14:41:59;10.32;;;6.70;;
67566;SDS011;54394;53.540;49.402;2022-07-29T14:44:25;6.07;;;4.82;;
67566;SDS011;54394;53.540;49.402;2022-07-29T14:46:59;8.15;;;5.43;;
67566;SDS011;54394;53.540;49.402;2022-07-29T14:49:28;16.62;;;6.12;;
67566;SDS011;54394;53.540;49.402;2022-07-29T14:51:54;10.18;;;6.95;;
67566;SDS011;54394;53.540;49.402;2022-07-29T14:54:20;9.48;;;6.47;;
67566;SDS011;54394;53.540;49.402;2022-07-29T14:56:46;10.48;;;5.78;;
67566;SDS011;54394;53.540;49.402;2022-07-29T14:59:14;8.18;;;6.05;;
67566;SDS011;54394;53.540;49.402;2022-07-29T15:01:40;10.00;;;5.12;;
67566;SDS011;54394;53.540;49.402;2022-07-29T15:04:06;7.93;;;4.78;;
67566;SDS011;54394;53.540;49.402;2022-07-29T15:06:32;9.18;;;5.28;;
67566;SDS011;54394;53.540;49.402;2022-07-29T15:08:59;10.25;;;5.03;;
67566;SDS011;54394;53.540;49.402;2022-07-29T15:11:25;7.15;;;4.87;;
67566;SDS011;54394;53.540;49.402;2022-07-29T15:13:51;9.70;;;6.05;;
67566;SDS011;54394;53.540;49.402;2022-07-29T15:16:17;6.25;;;4.72;;
67566;SDS011;54394;53.540;49.402;2022-07-29T15:18:43;12.95;;;5.20;;
67566;SDS011;54394;53.540;49.402;2022-07-29T15:21:09;11.12;;;5.95;;
67566;SDS011;54394;53.540;49.402;2022-07-29T15:23:35;10.77;;;5.43;;
67566;SDS011;54394;53.540;49.402;2022-07-29T15:26:02;8.48;;;5.35;;
67566;SDS011;54394;53.540;49.402;2022-07-29T15:28:28;9.80;;;5.10;;
67566;SDS011;54394;53.540;49.402;2022-07-29T15:30:55;9.80;;;6.25;;
67566;SDS011;54394;53.540;49.402;2022-07-29T15:33:21;11.60;;;6.40;;
67566;SDS011;54394;53.540;49.402;2022-07-29T15:35:47;18.17;;;6.93;;
67566;SDS011;54394;53.540;49.402;2022-07-29T15:38:13;9.80;;;6.00;;
67566;SDS011;54394;53.540;49.402;2022-07-29T15:40:39;11.82;;;6.35;;
67566;SDS011;54394;53.540;49.402;2022-07-29T15:43:06;15.00;;;5.90;;
67566;SDS011;54394;53.540;49.402;2022-07-29T15:45:36;10.98;;;6.28;;
67566;SDS011;54394;53.540;49.402;2022-07-29T15:48:05;10.27;;;6.12;;
67566;SDS011;54394;53.540;49.402;2022-07-29T15:50:33;10.52;;;6.05;;
67566;SDS011;54394;53.540;49.402;2022-07-29T15:52:59;8.32;;;5.43;;
67566;SDS011;54394;53.540;49.402;2022-07-29T15:55:25;10.32;;;6.40;;
67566;SDS011;54394;53.540;49.402;2022-07-29T15:57:51;8.48;;;5.55;;
67566;SDS011;54394;53.540;49.402;2022-07-29T16:00:17;8.55;;;5.50;;
67566;SDS011;54394;53.540;49.402;2022-07-29T16:02:44;9.68;;;5.65;;
67566;SDS011;54394;53.540;49.402;2022-07-29T16:05:10;11.73;;;5.55;;
67566;SDS011;54394;53.540;49.402;2022-07-29T16:07:36;10.70;;;5.20;;